createdAt,value
2018-12-27T00:04:56.621Z,18.17
2018-12-27T00:15:19.027Z,17.37
2018-12-27T00:25:41.530Z,18.40
2018-12-27T00:36:04.431Z,17.33
2018-12-27T00:46:26.677Z,17.97
2018-12-27T00:56:48.655Z,17.10
2018-12-27T01:07:10.663Z,18.67
2018-12-27T01:17:32.810Z,17.93
2018-12-27T01:27:54.763Z,18.60
2018-12-27T01:38:17.234Z,19.87
2018-12-27T01:48:39.497Z,18.40
2018-12-27T01:59:01.845Z,20.63
2018-12-27T02:09:24.339Z,20.17
2018-12-27T02:19:46.578Z,18.33
2018-12-27T02:30:09.055Z,16.53
2018-12-27T02:40:31.482Z,16.87
2018-12-27T02:50:53.806Z,18.02
2018-12-27T03:01:16.418Z,17.53
2018-12-27T03:11:38.696Z,18.37
2018-12-27T03:22:00.593Z,17.23
2018-12-27T03:32:22.924Z,18.20
2018-12-27T03:42:45.243Z,16.43
2018-12-27T03:53:07.417Z,17.03
2018-12-27T04:03:29.831Z,17.40
2018-12-27T04:13:52.102Z,16.93
2018-12-27T04:24:14.542Z,17.00
2018-12-27T04:34:36.895Z,15.77
2018-12-27T04:44:59.070Z,15.47
2018-12-27T04:55:20.937Z,16.70
2018-12-27T05:05:43.344Z,15.50
2018-12-27T05:16:05.579Z,16.67
2018-12-27T05:26:27.725Z,16.53
2018-12-27T05:36:49.682Z,15.40
2018-12-27T05:47:12.141Z,15.30
2018-12-27T05:57:34.323Z,14.97
2018-12-27T06:07:56.567Z,15.03
2018-12-27T06:18:18.697Z,14.37
2018-12-27T06:28:40.944Z,14.40
2018-12-27T06:39:05.329Z,14.83
2018-12-27T06:49:27.834Z,14.67
2018-12-27T06:59:50.026Z,16.40
2018-12-27T07:10:12.284Z,14.93
2018-12-27T07:20:34.456Z,14.97
2018-12-27T07:30:56.315Z,15.93
2018-12-27T07:41:18.556Z,14.63
2018-12-27T07:51:40.723Z,14.67
2018-12-27T08:02:02.610Z,15.10
2018-12-27T08:12:24.558Z,14.57
2018-12-27T08:22:46.660Z,15.50
2018-12-27T08:33:09.045Z,14.87
2018-12-27T08:43:31.461Z,14.97
2018-12-27T08:53:53.828Z,13.93
2018-12-27T09:04:16.019Z,13.23
2018-12-27T09:14:38.510Z,14.27
2018-12-27T09:25:00.409Z,13.07
2018-12-27T09:35:26.315Z,13.70
2018-12-27T09:45:46.367Z,13.60
2018-12-27T09:56:08.532Z,14.28
2018-12-27T10:06:30.623Z,13.90
2018-12-27T10:16:52.891Z,12.53
2018-12-27T10:27:15.026Z,12.27
2018-12-27T10:37:37.245Z,12.00
2018-12-27T10:47:59.417Z,12.80
2018-12-27T10:58:35.023Z,12.63
2018-12-27T11:08:58.545Z,11.70
2018-12-27T11:19:21.973Z,11.47
2018-12-27T11:29:45.420Z,10.33
2018-12-27T11:40:08.859Z,10.20
2018-12-27T11:50:32.288Z,11.60
2018-12-27T12:00:55.749Z,10.63
2018-12-27T12:11:19.217Z,10.97
2018-12-27T12:21:42.642Z,12.20
2018-12-27T12:42:45.928Z,11.83
2018-12-27T12:53:09.391Z,11.73
2018-12-27T13:03:32.883Z,11.47
2018-12-27T13:13:56.320Z,12.80
2018-12-27T13:24:19.759Z,11.87
2018-12-27T13:34:43.182Z,11.33
2018-12-27T13:45:06.971Z,12.57
2018-12-27T13:55:30.494Z,11.23
2018-12-27T14:05:53.930Z,11.17
2018-12-27T14:16:17.334Z,10.23
2018-12-27T14:26:39.025Z,10.70
2018-12-27T14:37:02.450Z,13.27
2018-12-27T14:47:26.240Z,11.87
2018-12-27T14:57:49.674Z,12.50
2018-12-27T15:18:52.929Z,14.40
2018-12-27T15:29:16.447Z,13.48
2018-12-27T15:39:39.931Z,14.43
2018-12-27T15:50:03.361Z,14.80
2018-12-27T16:00:26.872Z,14.80
2018-12-27T16:10:50.386Z,14.63
2018-12-27T16:21:13.835Z,16.10
2018-12-27T16:31:37.281Z,23.83
2018-12-27T16:42:00.781Z,18.87
2018-12-27T16:52:24.210Z,21.50
2018-12-27T17:02:47.640Z,22.27
2018-12-27T17:13:11.087Z,20.70
2018-12-27T17:23:34.526Z,16.70
2018-12-27T17:33:58.026Z,14.53
2018-12-27T17:44:21.434Z,12.73
2018-12-27T17:54:44.848Z,12.97
2018-12-27T18:05:08.322Z,11.70
2018-12-27T18:26:11.043Z,17.20
2018-12-27T18:36:34.552Z,14.10
2018-12-27T18:46:57.963Z,15.27
2018-12-27T18:57:21.404Z,13.30
2018-12-27T19:07:45.280Z,14.23
2018-12-27T19:18:35.633Z,15.20
2018-12-27T19:28:59.183Z,16.57
2018-12-27T19:39:22.696Z,16.13
2018-12-27T20:11:02.106Z,23.47
2018-12-27T20:21:25.553Z,19.40
2018-12-27T20:31:49.060Z,21.80
2018-12-27T20:42:13.490Z,18.40
2018-12-27T20:52:36.984Z,19.97
2018-12-27T21:03:00.403Z,21.27
2018-12-27T21:13:23.844Z,20.13
2018-12-27T21:23:47.362Z,17.47
2018-12-27T21:34:10.759Z,17.45
2018-12-27T21:44:34.164Z,18.50
2018-12-27T21:54:57.578Z,18.13
2018-12-27T22:05:21.033Z,16.27
2018-12-27T22:15:44.483Z,17.70
2018-12-27T22:26:07.887Z,16.83
2018-12-27T22:36:31.307Z,17.30
2018-12-27T22:46:54.776Z,18.93
2018-12-27T22:57:19.336Z,19.13
2018-12-27T23:07:41.600Z,17.63
2018-12-27T23:18:04.167Z,17.53
2018-12-27T23:28:26.368Z,18.90
2018-12-27T23:38:50.477Z,18.40
2018-12-27T23:49:12.151Z,18.10
2018-12-27T23:59:34.011Z,18.53
